Nearby METAR Reports

 

KFFZ - Mesa/Falcon Fld, Arizona, USA
Distance from station: ENE 9mi, 15km
Updated: Wed, 17-Jul-2019 10:54am MST
Clear
Clear
 Wind from S
Wind: S 10 mph , 17 km/h
Temperature: 97°F , 36°C
Dew Point: 63°F , 17°C
Humidity: 32%
Barometer: 29.95 inHg , 1014.2 hPa
Clouds: Clear
Visibility: 10 miles , 16 km
2019/07/17 17:54 KFFZ 171754Z 19009KT 10SM CLR 36/17 A2995 RMK AO2 SLP114 T03560172 10361 20311 50006
KIWA - Chandler/Mesa, Arizona, USA
Distance from station: ESE 14mi, 22km
Updated: Wed, 17-Jul-2019 10:47am MST
Partly Cloudy
Partly Cloudy
 Wind from S
Wind: S 6 mph , 9 km/h
Temperature: 97°F , 36°C
Dew Point: 64°F , 18°C
Humidity: 34%
Barometer: 29.98 inHg , 1015.2 hPa
Clouds: Partly Cloudy
Visibility: 10 miles , 16 km
Cloud details: Few Clouds 15000 ft
Partly Cloudy 20000 ft
2019/07/17 17:47 KIWA 171747Z 18005KT 10SM FEW150 SCT200 36/18 A2998
 
KFLG - Flagstaff, Arizona, USA
Distance from station: N 120mi, 193km
Updated: Wed, 17-Jul-2019 10:57am MST
Clear
Clear
 Wind from SSW
Wind: SSW 20 mph , 31 km/h, Gust: 28 mph , 44 km/h
Temperature: 79°F , 26°C
Dew Point: 45°F , 7°C
Humidity: 30%
Barometer: 30.32 inHg , 1026.8 hPa
Clouds: Clear
Visibility: 10 miles , 16 km
2019/07/17 17:57 KFLG 171757Z 21017G24KT 10SM CLR 26/07 A3032 RMK AO2 SLP154 T02560067 10256 20122 50002
KTUS - Tucson, Arizona, USA
Distance from station: SSE 102mi, 164km
Updated: Wed, 17-Jul-2019 10:53am MST
Clear
Clear
 Wind from W
Wind: W 7 mph , 11 km/h
Temperature: 90°F , 32°C
Dew Point: 61°F , 16°C
Humidity: 38%
Barometer: 30.07 inHg , 1018.3 hPa
Clouds: Clear
Visibility: 10 miles , 16 km
2019/07/17 17:53 KTUS 171753Z 27006KT 10SM CLR 32/16 A3007 RMK AO2 SLP126 T03170156 10317 20283 58005
 
KSOW - Show Low Municip, Arizona, USA
Distance from station: ENE 122mi, 196km
Updated: Wed, 17-Jul-2019 10:55am MST
Clear
Clear
 Wind from SSW
Wind: SSW 16 mph , 26 km/h, Gust: 24 mph , 39 km/h
Temperature: 82°F , 28°C
Dew Point: 46°F , 8°C
Humidity: 28%
Barometer: 30.32 inHg , 1026.8 hPa
Clouds: Clear
Visibility: 10 miles , 16 km
2019/07/17 17:55 KSOW 171755Z AUTO 20014G21KT 10SM CLR 28/08 A3032 RMK AO2
KINW - Winslow, Arizona, USA
Distance from station: NNE 130mi, 209km
Updated: Wed, 17-Jul-2019 10:56am MST
Few Clouds
Few Clouds
 Wind from SW
Wind: SW 17 mph , 28 km/h, Gust: 26 mph , 43 km/h
Temperature: 91°F , 33°C
Dew Point: 46°F , 8°C
Humidity: 21%
Barometer: 30.16 inHg , 1021.3 hPa
Clouds: Few Clouds
Visibility: 10 miles , 16 km
Cloud details: Few Clouds 9500 ft
2019/07/17 17:56 KINW 171756Z AUTO 23015G23KT 10SM FEW095 33/08 A3016 RMK AO2 PK WND 22026/1734 SLP118 T03330083 10344 20206 55002
 
KPRC - Prescott, Arizona, USA
Distance from station: NNW 92mi, 148km
Updated: Wed, 17-Jul-2019 10:53am MST
Clear
Clear
 Wind from S
Wind: S 15 mph , 24 km/h, Gust: 24 mph , 39 km/h
Temperature: 82°F , 28°C
Dew Point: 52°F , 11°C
Humidity: 35%
Barometer: 30.21 inHg , 1023 hPa
Clouds: Clear
Visibility: 10 miles , 16 km
2019/07/17 17:53 KPRC 171753Z AUTO 19013G21KT 10SM CLR 28/11 A3021 RMK AO2 SLP136 T02780106 10289 20183 52009
KPAN - Payson, Arizona, USA
Distance from station: NNE 66mi, 106km
Updated: Wed, 17-Jul-2019 10:55am MST
Clear
Clear
 Wind from SSW
Wind: SSW 10 mph , 17 km/h, Gust: 20 mph , 31 km/h
Temperature: 86°F , 30°C
Dew Point: 46°F , 8°C
Humidity: 25%
Barometer: 30.24 inHg , 1024 hPa
Clouds: Clear
Visibility: 10 miles , 16 km
2019/07/17 17:55 KPAN 171755Z AUTO 21009G17KT 180V240 10SM CLR 30/08 A3024 RMK AO2
 
KSEZ - Sedona, Arizona, USA
Distance from station: N 100mi, 161km
Updated: Wed, 17-Jul-2019 10:55am MST
Clear
Clear
 Wind from SSW
Wind: SSW 14 mph , 22 km/h, Gust: 24 mph , 39 km/h
Temperature: 88°F , 31°C
Dew Point: 48°F , 9°C
Humidity: 25%
Barometer: 30.19 inHg , 1022.4 hPa
Clouds: Clear
Visibility: 10 miles , 16 km
2019/07/17 17:55 KSEZ 171755Z AUTO 20012G21KT 160V220 10SM CLR 31/09 A3019 RMK AO2
KSAD - Safford, Arizona, USA
Distance from station: ESE 150mi, 241km
Updated: Wed, 17-Jul-2019 10:51am MST
Clear
Clear
 Wind from NW
Wind: NW 20 mph , 31 km/h, Gust: 26 mph , 43 km/h
Temperature: 97°F , 36°C
Dew Point: 52°F , 11°C
Humidity: 22%
Barometer: 30.04 inHg , 1017.3 hPa
Clouds: Clear
Visibility: 10 miles , 16 km
2019/07/17 17:51 KSAD 171751Z AUTO 31017G23KT 10SM CLR 36/11 A3004 RMK AO2 SLP108 T03610106 10361 20228 58004